Time;durP1;ratioP1;P1;durP2;ratioP2;P2;SDS_P1;SDS_P2;PMS_P1;PMS_P2;Temp;Humidity;BMP_temperature;BMP_pressure;BME280_temperature;BME280_humidity;BME280_pressure;Samples;Min_cycle;Max_cycle;Signal;HPM_P1;HPM_P2
2021/10/25 00:00:09;;;;;;;19.70;15.05;;;;;;;2.01;100.00;96400.28;1023204;29;20046;-71
2021/10/25 00:00:41;;;;;;;19.30;14.88;;;;;;;1.95;100.00;96395.88;1031475;28;20045;-71
2021/10/25 00:01:13;;;;;;;20.42;15.48;;;;;;;1.96;100.00;96407.81;1031663;28;20040;-70
2021/10/25 00:01:43;;;;;;;20.46;14.42;;;;;;;1.91;100.00;96405.78;1030308;28;20089;-67
2021/10/25 00:02:13;;;;;;;19.33;15.00;;;;;;;1.96;100.00;96405.25;1027351;28;20067;-70
2021/10/25 00:02:44;;;;;;;19.15;14.95;;;;;;;1.96;100.00;96402.66;1031713;28;20452;-71
2021/10/25 00:03:14;;;;;;;19.75;14.80;;;;;;;1.95;100.00;96404.44;1031360;28;20798;-71
2021/10/25 00:03:45;;;;;;;24.17;15.60;;;;;;;1.91;100.00;96413.56;1035808;28;20471;-71
2021/10/25 00:04:15;;;;;;;24.10;15.75;;;;;;;1.85;100.00;96402.19;1039139;28;20502;-71
2021/10/25 00:04:46;;;;;;;23.48;16.75;;;;;;;1.79;100.00;96389.22;1031650;28;20117;-71
2021/10/25 00:05:16;;;;;;;24.42;14.45;;;;;;;1.77;100.00;96394.56;1031370;28;20026;-70
2021/10/25 00:05:47;;;;;;;19.10;14.25;;;;;;;1.84;100.00;96404.97;1027353;28;20108;-71
2021/10/25 00:06:17;;;;;;;26.05;16.45;;;;;;;1.80;100.00;96401.16;1031160;28;20026;-71
2021/10/25 00:06:48;;;;;;;21.45;16.10;;;;;;;1.79;100.00;96407.34;1031353;28;20053;-71
2021/10/25 00:07:18;;;;;;;18.13;14.77;;;;;;;1.86;100.00;96403.00;1035509;28;20072;-71
2021/10/25 00:07:49;;;;;;;20.90;15.45;;;;;;;1.84;100.00;96404.97;1036164;28;20034;-71
2021/10/25 00:08:19;;;;;;;18.50;15.05;;;;;;;1.84;100.00;96402.38;1039614;28;20036;-72
2021/10/25 00:08:50;;;;;;;20.95;15.20;;;;;;;1.83;100.00;96409.34;1040247;28;20025;-70
2021/10/25 00:09:20;;;;;;;18.30;14.20;;;;;;;1.79;100.00;96409.94;1036025;28;20049;-72
2021/10/25 00:09:51;;;;;;;19.98;15.27;;;;;;;1.85;100.00;96399.63;1040265;28;20040;-72
2021/10/25 00:10:21;;;;;;;18.52;14.82;;;;;;;1.87;100.00;96402.78;1035910;28;20502;-71
2021/10/25 00:10:52;;;;;;;20.58;14.63;;;;;;;1.85;100.00;96399.63;1027170;28;20030;-70
2021/10/25 00:11:22;;;;;;;19.33;14.55;;;;;;;1.80;100.00;96399.38;1031341;28;20018;-70
2021/10/25 00:11:52;;;;;;;18.73;14.43;;;;;;;1.85;100.00;96402.19;1027609;28;20027;-70
2021/10/25 00:12:23;;;;;;;20.45;14.02;;;;;;;1.77;100.00;96392.00;1035428;28;20022;-70
2021/10/25 00:12:53;;;;;;;21.50;14.90;;;;;;;1.81;100.00;96395.81;1039633;28;20830;-72
2021/10/25 00:13:24;;;;;;;21.33;14.40;;;;;;;1.78;100.00;96401.38;1035422;28;20022;-70
2021/10/25 00:13:54;;;;;;;20.65;14.00;;;;;;;1.82;100.00;96401.78;1027080;28;20026;-71
2021/10/25 00:14:25;;;;;;;20.15;14.10;;;;;;;1.82;100.00;96397.41;1031460;28;20014;-71
2021/10/25 00:14:55;;;;;;;19.73;14.75;;;;;;;1.81;100.00;96397.59;1027141;28;20050;-71
2021/10/25 00:15:26;;;;;;;19.77;14.63;;;;;;;1.80;100.00;96401.97;1023487;28;20385;-71
2021/10/25 00:15:57;;;;;;;16.58;14.06;;;;;;;1.78;100.00;96398.00;1023867;28;20728;-71
2021/10/25 00:16:27;;;;;;;17.65;14.20;;;;;;;1.79;100.00;96397.00;1035295;28;20030;-71
2021/10/25 00:16:58;;;;;;;19.65;14.20;;;;;;;1.77;100.00;96401.53;1031440;28;20022;-70
2021/10/25 00:17:28;;;;;;;16.63;13.93;;;;;;;1.76;100.00;96402.53;1031296;28;20022;-71
2021/10/25 00:17:59;;;;;;;19.23;14.85;;;;;;;1.75;100.00;96396.56;1030650;28;20113;-72
2021/10/25 00:18:29;;;;;;;22.02;15.52;;;;;;;1.80;100.00;96403.75;1035584;28;20037;-71
2021/10/25 00:19:00;;;;;;;17.45;13.35;;;;;;;1.84;100.00;96403.16;1031146;28;20512;-70
2021/10/25 00:19:31;;;;;;;18.77;13.73;;;;;;;1.86;100.00;96403.00;1039480;28;20033;-70
2021/10/25 00:20:06;;;;;;;18.46;13.14;;;;;;;1.94;100.00;96405.41;1035710;28;20033;-71
2021/10/25 00:20:36;;;;;;;19.66;13.96;;;;;;;1.95;100.00;96406.25;1040172;28;20033;-71
2021/10/25 00:21:07;;;;;;;19.50;13.70;;;;;;;1.89;100.00;96403.41;1039428;28;20025;-72
2021/10/25 00:21:37;;;;;;;17.48;13.77;;;;;;;1.88;100.00;96401.03;1039939;28;20848;-72
2021/10/25 00:22:08;;;;;;;21.70;14.68;;;;;;;1.93;100.00;96403.81;1035228;28;20472;-70
2021/10/25 00:22:39;;;;;;;16.45;13.13;;;;;;;1.95;100.00;96409.63;1031463;28;20030;-71
2021/10/25 00:23:10;;;;;;;18.66;13.60;;;;;;;1.95;100.00;96403.66;1035177;28;20129;-71
2021/10/25 00:23:40;;;;;;;18.95;13.63;;;;;;;1.94;100.00;96405.41;1035261;28;20664;-71
2021/10/25 00:24:11;;;;;;;22.30;14.05;;;;;;;1.95;100.00;96401.84;1031537;28;20801;-71
2021/10/25 00:24:41;;;;;;;17.48;12.30;;;;;;;1.92;100.00;96401.44;1031174;28;20033;-71
2021/10/25 00:25:12;;;;;;;18.20;12.80;;;;;;;1.98;100.00;96405.81;1027365;28;20508;-72
2021/10/25 00:25:42;;;;;;;18.30;13.63;;;;;;;1.97;100.00;96405.03;1031523;28;20034;-71
2021/10/25 00:26:13;;;;;;;16.25;13.27;;;;;;;1.95;100.00;96406.25;1035117;28;20034;-72
2021/10/25 00:26:43;;;;;;;18.88;13.73;;;;;;;1.92;100.00;96399.66;1035519;28;20499;-71
2021/10/25 00:27:14;;;;;;;17.85;12.85;;;;;;;1.89;100.00;96392.28;1027003;28;20400;-71
2021/10/25 00:27:44;;;;;;;20.42;13.85;;;;;;;1.92;100.00;96402.25;1025832;28;20489;-71
2021/10/25 00:28:14;;;;;;;21.45;13.65;;;;;;;1.89;100.00;96394.84;1027410;28;20039;-70
2021/10/25 00:28:45;;;;;;;17.23;13.43;;;;;;;1.87;100.00;96399.41;1027323;28;20071;-70
2021/10/25 00:29:15;;;;;;;18.55;13.23;;;;;;;1.87;100.00;96400.19;1027421;28;20035;-71
2021/10/25 00:29:46;;;;;;;18.60;13.15;;;;;;;1.89;100.00;96408.59;1039312;28;20076;-71
2021/10/25 00:30:16;;;;;;;18.98;13.23;;;;;;;1.91;100.00;96400.63;1031185;28;20026;-71
2021/10/25 00:30:47;;;;;;;18.15;14.40;;;;;;;1.91;100.00;96408.38;1035587;28;20009;-71
2021/10/25 00:31:17;;;;;;;22.15;14.07;;;;;;;1.89;100.00;96403.41;1034897;28;20037;-71
2021/10/25 00:31:47;;;;;;;20.38;13.95;;;;;;;1.87;100.00;96396.81;1031364;28;20560;-71
2021/10/25 00:32:18;;;;;;;17.92;13.27;;;;;;;1.87;100.00;96396.81;1031346;28;20026;-71
2021/10/25 00:32:48;;;;;;;19.67;13.70;;;;;;;1.88;100.00;96396.66;1031305;28;20029;-71
2021/10/25 00:33:19;;;;;;;23.15;13.63;;;;;;;1.87;100.00;96402.78;1030927;28;20094;-70
2021/10/25 00:33:49;;;;;;;17.25;13.45;;;;;;;1.85;100.00;96402.19;1031361;28;20022;-71
2021/10/25 00:34:20;;;;;;;14.55;11.88;;;;;;;1.84;100.00;96399.78;1031241;28;20019;-70
2021/10/25 00:34:50;;;;;;;17.10;12.98;;;;;;;1.78;100.00;96395.41;1035708;28;20021;-71
2021/10/25 00:35:21;;;;;;;17.25;14.52;;;;;;;1.80;100.00;96399.38;1039220;28;20017;-70
2021/10/25 00:35:52;;;;;;;15.15;12.73;;;;;;;1.81;100.00;96401.00;1027284;28;20069;-72
2021/10/25 00:36:23;;;;;;;17.96;13.96;;;;;;;1.83;100.00;96405.97;1023603;28;20026;-70
2021/10/25 00:36:53;;;;;;;17.02;13.38;;;;;;;1.77;100.00;96393.78;1027458;28;20011;-71
2021/10/25 00:37:24;;;;;;;17.55;13.57;;;;;;;1.84;100.00;96405.75;1027784;28;20034;-73
2021/10/25 00:37:57;;;;;;;17.13;13.27;;;;;;;1.78;100.00;96392.81;1038946;28;20478;-71
2021/10/25 00:38:27;;;;;;;16.48;12.68;;;;;;;1.84;100.00;96402.38;1031200;28;20101;-71
2021/10/25 00:38:58;;;;;;;18.38;14.02;;;;;;;1.84;100.00;96402.38;1031826;28;20030;-70
2021/10/25 00:39:31;;;;;;;19.10;14.07;;;;;;;1.85;100.00;96401.41;1031495;28;20011;-70
2021/10/25 00:40:02;;;;;;;20.62;15.24;;;;;;;1.85;100.00;96406.59;1028571;28;20029;-71
2021/10/25 00:40:32;;;;;;;19.30;13.02;;;;;;;1.75;100.00;96393.19;1031355;28;20117;-71
2021/10/25 00:41:03;;;;;;;21.58;13.40;;;;;;;1.80;100.00;96401.97;1031535;28;20023;-71
2021/10/25 00:41:33;;;;;;;17.65;13.35;;;;;;;1.75;100.00;96401.75;1035561;28;20109;-71
2021/10/25 00:42:04;;;;;;;18.20;13.02;;;;;;;1.74;100.00;96400.13;1041745;28;20025;-70
2021/10/25 00:42:34;;;;;;;16.35;13.10;;;;;;;1.69;100.00;96401.72;1039308;28;20497;-71
2021/10/25 00:43:05;;;;;;;25.85;14.02;;;;;;;1.67;100.00;96411.44;1035669;28;20442;-71
2021/10/25 00:43:35;;;;;;;19.30;13.45;;;;;;;1.64;100.00;96404.84;1035396;28;20021;-71
2021/10/25 00:44:05;;;;;;;17.40;13.38;;;;;;;1.60;100.00;96401.84;1035360;28;20030;-70
2021/10/25 00:44:36;;;;;;;25.38;14.07;;;;;;;1.58;100.00;96401.25;1031582;28;20022;-70
2021/10/25 00:45:07;;;;;;;20.77;13.50;;;;;;;1.53;100.00;96403.59;1031421;28;20053;-72
2021/10/25 00:45:37;;;;;;;17.10;12.32;;;;;;;1.32;100.00;96370.03;1027375;28;20050;-71
2021/10/25 00:46:08;;;;;;;18.50;11.43;;;;;;;1.50;100.00;96403.97;1027497;28;20083;-71
2021/10/25 00:46:38;;;;;;;17.33;13.35;;;;;;;1.44;100.00;96399.53;1027399;28;20082;-70
2021/10/25 00:47:09;;;;;;;19.15;12.93;;;;;;;1.43;100.00;96405.72;1035866;28;20554;-70
2021/10/25 00:47:39;;;;;;;17.10;12.63;;;;;;;1.39;100.00;96402.69;1034919;28;20030;-69
2021/10/25 00:48:10;;;;;;;20.00;13.73;;;;;;;1.36;100.00;96404.88;1035066;28;20030;-71
2021/10/25 00:48:40;;;;;;;17.08;12.25;;;;;;;1.36;100.00;96407.44;1031889;28;20026;-71
2021/10/25 00:49:11;;;;;;;24.30;13.20;;;;;;;1.33;100.00;96413.00;1023400;28;20034;-70
2021/10/25 00:49:41;;;;;;;15.70;12.55;;;;;;;1.24;100.00;96402.00;1027362;28;20018;-71
2021/10/25 00:50:12;;;;;;;18.05;13.38;;;;;;;1.26;100.00;96404.38;1023512;28;20592;-69
2021/10/25 00:50:42;;;;;;;19.13;13.93;;;;;;;1.23;100.00;96402.97;1023507;28;20086;-71
2021/10/25 00:51:14;;;;;;;19.35;13.57;;;;;;;1.22;100.00;96405.75;1031489;28;20395;-71
2021/10/25 00:51:45;;;;;;;17.30;12.38;;;;;;;1.14;100.00;96399.75;1031621;28;20050;-70
2021/10/25 00:52:15;;;;;;;17.85;13.18;;;;;;;1.14;100.00;96402.31;1027408;28;20030;-71
2021/10/25 00:52:46;;;;;;;24.48;13.50;;;;;;;1.11;100.00;96397.53;1024215;28;20053;-70
2021/10/25 00:53:16;;;;;;;24.13;14.25;;;;;;;1.13;100.00;96411.03;1027328;28;20026;-71
2021/10/25 00:53:46;;;;;;;20.95;13.45;;;;;;;1.08;100.00;96405.66;1031462;28;20026;-71
2021/10/25 00:54:17;;;;;;;22.15;13.95;;;;;;;1.06;100.00;96406.81;1031299;28;20026;-70
2021/10/25 00:54:48;;;;;;;19.83;13.60;;;;;;;1.03;100.00;96407.19;1031510;28;20125;-71
2021/10/25 00:55:18;;;;;;;17.85;13.25;;;;;;;0.95;100.00;96402.94;1027522;28;20022;-71
2021/10/25 00:55:49;;;;;;;19.05;13.75;;;;;;;0.96;100.00;96407.13;1031333;28;20077;-71
2021/10/25 00:56:19;;;;;;;20.40;14.88;;;;;;;0.97;100.00;96408.72;1031183;28;20026;-71
2021/10/25 00:56:50;;;;;;;20.00;14.13;;;;;;;0.94;100.00;96414.28;1023522;28;20033;-71
2021/10/25 00:57:24;;;;;;;18.90;13.85;;;;;;;0.91;100.00;96410.28;1023156;29;20085;-70
2021/10/25 00:57:55;;;;;;;18.54;14.06;;;;;;;0.90;100.00;96408.66;1022799;28;20066;-70
2021/10/25 00:58:25;;;;;;;21.36;14.70;;;;;;;0.90;100.00;96415.59;1028626;28;20027;-72
2021/10/25 00:58:56;;;;;;;19.98;14.65;;;;;;;0.83;100.00;96404.41;1036484;28;20468;-71
2021/10/25 00:59:27;;;;;;;25.30;15.52;;;;;;;0.82;100.00;96406.22;1043799;28;20017;-71
2021/10/25 00:59:57;;;;;;;22.77;16.23;;;;;;;0.80;100.00;96399.63;1035243;28;20783;-70
2021/10/25 01:00:29;;;;;;;21.92;15.10;;;;;;;0.85;100.00;96416.16;1031239;28;20476;-71
2021/10/25 01:00:59;;;;;;;22.38;15.84;;;;;;;0.84;100.00;96409.41;1027759;28;20019;-71
2021/10/25 01:01:30;;;;;;;23.02;15.95;;;;;;;0.83;100.00;96417.34;1027565;28;20023;-71
2021/10/25 01:02:00;;;;;;;22.73;16.33;;;;;;;0.83;100.00;96423.28;1027765;28;20456;-71
2021/10/25 01:02:31;;;;;;;25.40;15.73;;;;;;;0.83;100.00;96412.97;1031635;28;20739;-71
2021/10/25 01:03:01;;;;;;;29.83;16.05;;;;;;;0.85;100.00;96410.22;1035397;28;20082;-71
2021/10/25 01:03:32;;;;;;;23.55;16.20;;;;;;;0.84;100.00;96413.75;1035519;28;20018;-69
2021/10/25 01:04:02;;;;;;;21.65;15.90;;;;;;;0.85;100.00;96408.41;1031474;28;20039;-70
2021/10/25 01:04:33;;;;;;;25.63;15.98;;;;;;;0.80;100.00;96400.41;1027075;28;20042;-71
2021/10/25 01:05:04;;;;;;;21.23;15.90;;;;;;;0.80;100.00;96405.59;1023543;29;20477;-71
2021/10/25 01:05:34;;;;;;;21.20;15.18;;;;;;;0.81;100.00;96409.78;1027433;28;20030;-70
2021/10/25 01:06:06;;;;;;;20.45;15.30;;;;;;;0.80;100.00;96403.00;1027427;28;20015;-69
2021/10/25 01:06:38;;;;;;;20.10;15.12;;;;;;;0.78;100.00;96412.72;1023403;28;20027;-69
2021/10/25 01:07:08;;;;;;;20.38;14.66;;;;;;;0.69;100.00;96406.06;1023599;28;20035;-71
2021/10/25 01:07:40;;;;;;;22.05;14.68;;;;;;;0.68;100.00;96400.13;1026837;28;20031;-67
2021/10/25 01:08:10;;;;;;;21.28;14.72;;;;;;;0.76;100.00;96412.09;1026930;28;20023;-71
2021/10/25 01:08:41;;;;;;;21.77;14.90;;;;;;;0.74;100.00;96408.91;1027072;28;20025;-72
2021/10/25 01:09:11;;;;;;;21.35;15.88;;;;;;;0.75;100.00;96410.50;1027489;28;20007;-72
2021/10/25 01:09:42;;;;;;;21.30;14.32;;;;;;;0.67;100.00;96406.28;1031371;28;20129;-71
2021/10/25 01:10:12;;;;;;;26.77;14.05;;;;;;;0.70;100.00;96412.84;1027177;28;20066;-70
2021/10/25 01:10:43;;;;;;;20.77;14.43;;;;;;;0.66;100.00;96417.56;1027349;28;20034;-71
2021/10/25 01:11:13;;;;;;;19.35;14.93;;;;;;;0.60;100.00;96407.97;1027039;28;20026;-70
2021/10/25 01:11:44;;;;;;;22.38;15.18;;;;;;;0.63;100.00;96415.34;1031611;28;20022;-71
2021/10/25 01:12:15;;;;;;;20.75;15.73;;;;;;;0.56;100.00;96403.34;1031188;28;20030;-71
2021/10/25 01:12:45;;;;;;;19.30;14.84;;;;;;;0.63;100.00;96412.75;1027270;28;20457;-70
2021/10/25 01:13:16;;;;;;;21.42;15.15;;;;;;;0.63;100.00;96415.34;1023357;29;20034;-71
2021/10/25 01:13:46;;;;;;;21.55;14.50;;;;;;;0.59;100.00;96406.38;1027365;28;20018;-71
2021/10/25 01:14:17;;;;;;;20.77;15.40;;;;;;;0.51;100.00;96398.75;1027169;28;20018;-71
2021/10/25 01:14:47;;;;;;;21.23;14.80;;;;;;;0.58;100.00;96409.94;1031473;28;20030;-71
2021/10/25 01:15:18;;;;;;;20.50;15.13;;;;;;;0.60;100.00;96415.72;1031072;28;20134;-71
2021/10/25 01:15:49;;;;;;;21.60;13.86;;;;;;;0.61;100.00;96413.94;1027990;28;20034;-71
2021/10/25 01:16:19;;;;;;;22.50;14.85;;;;;;;0.62;100.00;96416.34;1039445;28;20124;-71
2021/10/25 01:16:50;;;;;;;22.42;15.18;;;;;;;0.63;100.00;96412.75;1035346;28;20025;-71
2021/10/25 01:17:21;;;;;;;23.70;14.02;;;;;;;0.73;100.00;96415.06;1027402;28;20760;-71
2021/10/25 01:17:58;;;;;;;18.86;14.02;;;;;;;0.70;100.00;96408.50;1030613;28;20044;-70
2021/10/25 01:18:28;;;;;;;18.70;15.08;;;;;;;0.76;100.00;96412.09;1029556;28;20018;-71
2021/10/25 01:18:59;;;;;;;20.05;15.45;;;;;;;0.81;100.00;96409.00;1033173;28;20389;-71
2021/10/25 01:19:30;;;;;;;21.27;15.18;;;;;;;0.74;100.00;96397.75;1035247;28;20419;-71
2021/10/25 01:20:00;;;;;;;23.02;15.30;;;;;;;0.94;100.00;96409.13;1027384;28;20030;-71
2021/10/25 01:20:31;;;;;;;23.88;15.82;;;;;;;0.89;100.00;96408.84;1027214;28;20027;-70
2021/10/25 01:21:02;;;;;;;22.02;14.50;;;;;;;0.93;100.00;96408.28;1027158;28;20034;-70
2021/10/25 01:21:33;;;;;;;19.75;14.60;;;;;;;0.96;100.00;96407.13;1027532;28;20039;-71
2021/10/25 01:22:03;;;;;;;18.98;13.60;;;;;;;1.00;100.00;96402.38;1031993;28;20041;-70
2021/10/25 01:22:34;;;;;;;21.92;14.68;;;;;;;1.06;100.00;96407.59;1043751;28;20029;-71
2021/10/25 01:23:07;;;;;;;22.20;15.16;;;;;;;1.18;100.00;96410.50;1035340;28;20026;-70
2021/10/25 01:23:38;;;;;;;18.02;15.16;;;;;;;1.13;100.00;96392.16;1031392;28;20038;-71
2021/10/25 01:24:08;;;;;;;20.92;14.93;;;;;;;1.17;100.00;96407.13;1031515;28;20042;-71
2021/10/25 01:24:39;;;;;;;19.40;14.20;;;;;;;1.21;100.00;96406.72;1031504;28;20031;-72
2021/10/25 01:25:09;;;;;;;17.60;13.52;;;;;;;1.27;100.00;96409.38;1031284;28;20089;-71
2021/10/25 01:25:40;;;;;;;21.00;14.57;;;;;;;1.21;100.00;96398.97;1031236;28;20030;-71
2021/10/25 01:26:10;;;;;;;19.58;14.55;;;;;;;1.27;100.00;96400.81;1027348;28;20082;-71
2021/10/25 01:26:40;;;;;;;19.83;14.05;;;;;;;1.28;100.00;96405.81;1027590;28;20026;-71
2021/10/25 01:27:11;;;;;;;18.63;14.35;;;;;;;1.25;100.00;96393.25;1027241;28;20026;-71
2021/10/25 01:27:44;;;;;;;19.30;14.18;;;;;;;1.30;100.00;96395.28;1022703;29;20900;-70
2021/10/25 01:28:15;;;;;;;17.92;14.04;;;;;;;1.42;100.00;96393.78;1035241;28;20697;-70
2021/10/25 01:28:46;;;;;;;20.83;15.43;;;;;;;1.37;100.00;96398.69;1035787;28;20025;-71
2021/10/25 01:29:19;;;;;;;18.00;12.95;;;;;;;1.37;100.00;96398.69;1035168;28;20511;-70
2021/10/25 01:29:49;;;;;;;18.30;12.98;;;;;;;1.37;100.00;96406.47;1028171;28;20061;-71
2021/10/25 01:30:20;;;;;;;19.95;13.07;;;;;;;1.30;100.00;96387.50;1031117;28;20034;-71
2021/10/25 01:30:50;;;;;;;17.98;13.05;;;;;;;1.39;100.00;96407.88;1028011;28;20568;-70
2021/10/25 01:31:21;;;;;;;16.55;12.75;;;;;;;1.35;100.00;96400.69;1027088;28;20409;-72
2021/10/25 01:31:52;;;;;;;18.15;13.88;;;;;;;1.41;100.00;96403.31;1031030;28;20068;-69
2021/10/25 01:32:22;;;;;;;16.13;13.05;;;;;;;1.47;100.00;96404.34;1031526;28;20069;-71
2021/10/25 01:32:53;;;;;;;16.30;12.40;;;;;;;1.48;100.00;96405.16;1027202;28;20015;-70
2021/10/25 01:33:24;;;;;;;17.10;13.24;;;;;;;1.47;100.00;96404.34;1031078;28;20034;-72
2021/10/25 01:33:54;;;;;;;16.15;12.13;;;;;;;1.50;100.00;96403.97;1031179;28;20461;-71
2021/10/25 01:34:25;;;;;;;17.45;12.05;;;;;;;1.50;100.00;96403.97;1031609;28;20047;-71
2021/10/25 01:34:55;;;;;;;16.50;12.60;;;;;;;1.49;100.00;96402.38;1039502;28;20013;-71
2021/10/25 01:35:26;;;;;;;19.33;12.75;;;;;;;1.47;100.00;96404.34;1035145;28;20076;-71
2021/10/25 01:35:56;;;;;;;16.33;12.38;;;;;;;1.49;100.00;96407.53;1031021;28;20017;-71
2021/10/25 01:36:26;;;;;;;19.02;11.90;;;;;;;1.51;100.00;96397.81;1027322;28;20015;-71
2021/10/25 01:36:57;;;;;;;15.55;11.20;;;;;;;1.54;100.00;96404.38;1027329;28;20015;-71
2021/10/25 01:37:27;;;;;;;17.35;11.25;;;;;;;1.59;100.00;96400.25;1035211;28;20018;-71
2021/10/25 01:38:00;;;;;;;16.88;11.98;;;;;;;1.59;100.00;96400.25;1026448;28;20473;-70
2021/10/25 01:38:31;;;;;;;15.66;11.42;;;;;;;1.53;100.00;96395.84;1027144;28;20713;-72
2021/10/25 01:39:01;;;;;;;13.20;10.95;;;;;;;1.58;100.00;96396.06;1023305;29;20024;-71
2021/10/25 01:39:32;;;;;;;16.90;11.85;;;;;;;1.56;100.00;96395.44;1023790;28;20024;-71
2021/10/25 01:40:04;;;;;;;16.40;11.68;;;;;;;1.48;100.00;96380.09;1030981;28;20081;-71
2021/10/25 01:40:34;;;;;;;16.46;11.82;;;;;;;1.56;100.00;96392.88;1027481;28;20026;-71
2021/10/25 01:41:05;;;;;;;14.48;10.73;;;;;;;1.58;100.00;96397.88;1031374;28;20023;-71
2021/10/25 01:41:35;;;;;;;17.80;11.50;;;;;;;1.54;100.00;96391.44;1030958;28;20133;-72
2021/10/25 01:42:06;;;;;;;16.45;11.45;;;;;;;1.56;100.00;96390.28;1027412;28;20060;-71
2021/10/25 01:42:37;;;;;;;14.65;11.43;;;;;;;1.57;100.00;96399.63;1031077;28;20028;-70
2021/10/25 01:43:07;;;;;;;15.75;10.98;;;;;;;1.48;100.00;96385.28;1027576;28;20037;-72
2021/10/25 01:43:38;;;;;;;14.95;10.00;;;;;;;1.57;100.00;96394.47;1027177;28;20027;-71
2021/10/25 01:44:10;;;;;;;12.85;10.95;;;;;;;1.56;100.00;96379.94;1030211;28;20675;-72
2021/10/25 01:44:40;;;;;;;13.00;11.08;;;;;;;1.62;100.00;96394.69;1024648;28;20746;-68
2021/10/25 01:45:11;;;;;;;12.30;10.27;;;;;;;1.60;100.00;96388.91;1028580;28;20047;-67
2021/10/25 01:45:45;;;;;;;13.50;10.25;;;;;;;1.65;100.00;96388.34;1026738;28;20472;-71
2021/10/25 01:46:15;;;;;;;14.94;11.60;;;;;;;1.64;100.00;96394.50;1027368;28;20705;-71
2021/10/25 01:46:46;;;;;;;12.77;10.20;;;;;;;1.61;100.00;96394.88;1029947;28;20018;-71
2021/10/25 01:47:16;;;;;;;13.50;10.48;;;;;;;1.57;100.00;96397.03;1027434;28;20070;-71
2021/10/25 01:47:46;;;;;;;14.30;10.43;;;;;;;1.53;100.00;96403.59;1026404;28;20030;-71
2021/10/25 01:48:17;;;;;;;15.45;11.52;;;;;;;1.52;100.00;96396.81;1033756;28;20044;-71
2021/10/25 01:48:48;;;;;;;17.08;12.32;;;;;;;1.42;100.00;96381.66;1035138;28;20100;-71
2021/10/25 01:49:18;;;;;;;17.38;12.55;;;;;;;1.44;100.00;96386.63;1034838;28;20029;-70
2021/10/25 01:49:49;;;;;;;18.85;12.50;;;;;;;1.45;100.00;96393.41;1034878;28;20507;-71
2021/10/25 01:50:19;;;;;;;17.42;12.15;;;;;;;1.40;100.00;96401.72;1030924;28;20084;-71
2021/10/25 01:50:50;;;;;;;15.23;12.32;;;;;;;1.39;100.00;96391.56;1031070;28;20034;-71
2021/10/25 01:51:20;;;;;;;17.85;11.73;;;;;;;1.33;100.00;96394.91;1035129;28;20061;-71
2021/10/25 01:51:51;;;;;;;18.73;12.07;;;;;;;1.34;100.00;96399.06;1039129;28;20128;-71
2021/10/25 01:52:21;;;;;;;14.70;10.85;;;;;;;1.32;100.00;96401.06;1043048;28;20024;-71
2021/10/25 01:52:52;;;;;;;18.85;11.95;;;;;;;1.31;100.00;96397.69;1043186;28;20036;-72
2021/10/25 01:53:22;;;;;;;14.95;11.20;;;;;;;1.34;100.00;96399.06;1043174;28;20090;-71
2021/10/25 01:53:53;;;;;;;16.92;11.30;;;;;;;1.32;100.00;96390.72;1038914;28;20088;-70
2021/10/25 01:54:23;;;;;;;14.98;10.93;;;;;;;1.34;100.00;96397.31;1035069;28;20014;-72
2021/10/25 01:54:54;;;;;;;14.35;10.50;;;;;;;1.35;100.00;96392.94;1030752;28;20030;-70
2021/10/25 01:55:24;;;;;;;15.02;9.90;;;;;;;1.36;100.00;96390.16;1023004;28;20520;-71
2021/10/25 01:56:01;;;;;;;12.23;9.38;;;;;;;1.33;100.00;96382.75;1023046;28;20035;-71
2021/10/25 01:56:32;;;;;;;12.84;9.16;;;;;;;1.38;100.00;96389.97;1027833;28;20425;-71
2021/10/25 01:57:02;;;;;;;14.05;10.95;;;;;;;1.39;100.00;96388.97;1033764;28;20038;-71
2021/10/25 01:57:33;;;;;;;13.13;10.23;;;;;;;1.39;100.00;96389.78;1034870;28;20022;-71
2021/10/25 01:58:04;;;;;;;13.23;10.55;;;;;;;1.36;100.00;96376.44;1035267;28;20029;-70
2021/10/25 01:58:35;;;;;;;13.72;9.90;;;;;;;1.37;100.00;96383.19;1030809;28;20056;-70
2021/10/25 01:59:07;;;;;;;12.73;10.48;;;;;;;1.32;100.00;96370.03;1031275;28;20385;-71
2021/10/25 01:59:37;;;;;;;14.10;9.80;;;;;;;1.31;100.00;96369.25;1034781;28;20049;-71
2021/10/25 02:00:08;;;;;;;16.48;9.52;;;;;;;1.38;100.00;96380.44;1031206;28;20045;-71
2021/10/25 02:00:38;;;;;;;16.02;9.90;;;;;;;1.37;100.00;96373.63;1022618;29;20027;-70
2021/10/25 02:01:14;;;;;;;12.65;9.15;;;;;;;1.35;100.00;96365.28;1023130;28;20500;-70
2021/10/25 02:01:45;;;;;;;12.32;8.74;;;;;;;1.40;100.00;96372.47;1024378;28;20034;-70
2021/10/25 02:02:16;;;;;;;13.98;10.23;;;;;;;1.44;100.00;96376.28;1027633;28;20042;-71
2021/10/25 02:02:46;;;;;;;17.23;10.23;;;;;;;1.45;100.00;96369.34;1034705;28;20467;-71
2021/10/25 02:03:16;;;;;;;16.30;9.45;;;;;;;1.43;100.00;96369.50;1030998;28;20066;-72
2021/10/25 02:03:47;;;;;;;11.68;9.65;;;;;;;1.42;100.00;96367.91;1031159;28;20030;-72
2021/10/25 02:04:17;;;;;;;17.95;9.68;;;;;;;1.41;100.00;96376.69;1034996;28;20033;-71
2021/10/25 02:04:48;;;;;;;17.20;10.48;;;;;;;1.41;100.00;96369.72;1031520;28;20033;-70
2021/10/25 02:05:18;;;;;;;13.27;10.13;;;;;;;1.41;100.00;96374.09;1031886;28;20027;-72
2021/10/25 02:05:49;;;;;;;14.93;10.93;;;;;;;1.40;100.00;96375.84;1035779;28;20025;-71
2021/10/25 02:06:20;;;;;;;16.40;10.25;;;;;;;1.41;100.00;96368.91;1035716;28;20496;-72
2021/10/25 02:06:50;;;;;;;15.08;10.86;;;;;;;1.36;100.00;96371.25;1043781;28;20033;-72
2021/10/25 02:07:21;;;;;;;14.00;10.60;;;;;;;1.35;100.00;96369.66;1043830;28;20032;-71
2021/10/25 02:07:51;;;;;;;15.05;10.98;;;;;;;1.34;100.00;96373.22;1043377;28;20087;-69
2021/10/25 02:08:23;;;;;;;19.20;12.02;;;;;;;1.31;100.00;96368.44;1039046;28;20037;-71
2021/10/25 02:08:53;;;;;;;14.60;10.66;;;;;;;1.32;100.00;96368.25;1035017;28;20030;-70
2021/10/25 02:09:24;;;;;;;13.32;10.70;;;;;;;1.20;100.00;96362.00;1030636;28;20050;-72
2021/10/25 02:09:54;;;;;;;15.02;10.57;;;;;;;1.09;100.00;96347.81;1030858;28;20077;-71
2021/10/25 02:10:25;;;;;;;17.08;10.02;;;;;;;1.24;100.00;96378.75;1035533;28;20041;-70
2021/10/25 02:10:55;;;;;;;16.60;10.65;;;;;;;1.21;100.00;96373.13;1026841;28;20467;-69
2021/10/25 02:11:26;;;;;;;13.40;10.07;;;;;;;1.16;100.00;96365.94;1030953;28;20108;-70
2021/10/25 02:11:57;;;;;;;14.93;10.55;;;;;;;1.18;100.00;96372.53;1022955;28;20126;-69
2021/10/25 02:12:28;;;;;;;14.06;11.02;;;;;;;1.20;100.00;96376.69;1025659;28;20266;-70
2021/10/25 02:12:58;;;;;;;12.82;9.85;;;;;;;1.19;100.00;96375.91;1027165;28;20027;-70
2021/10/25 02:13:29;;;;;;;14.48;11.07;;;;;;;1.18;100.00;96369.94;1027526;28;20106;-70
2021/10/25 02:13:59;;;;;;;14.57;10.25;;;;;;;1.13;100.00;96368.91;1035034;28;20021;-69
2021/10/25 02:14:29;;;;;;;15.13;11.13;;;;;;;1.16;100.00;96369.31;1035276;28;20079;-69
2021/10/25 02:15:00;;;;;;;16.42;10.30;;;;;;;1.15;100.00;96367.72;1034866;28;20033;-71
2021/10/25 02:15:31;;;;;;;14.35;10.45;;;;;;;1.17;100.00;96365.78;1026790;28;20034;-69
2021/10/25 02:16:02;;;;;;;14.44;11.02;;;;;;;1.15;100.00;96365.16;1027378;28;20018;-70
2021/10/25 02:16:32;;;;;;;18.85;11.77;;;;;;;1.11;100.00;96361.34;1030877;28;20038;-70
2021/10/25 02:17:03;;;;;;;14.05;11.00;;;;;;;1.16;100.00;96376.28;1030921;28;20067;-69
2021/10/25 02:17:34;;;;;;;12.60;10.46;;;;;;;1.10;100.00;96364.91;1030988;28;20498;-70
2021/10/25 02:18:04;;;;;;;14.32;10.70;;;;;;;1.17;100.00;96376.09;1025820;28;20074;-71
2021/10/25 02:18:34;;;;;;;14.65;10.38;;;;;;;1.18;100.00;96384.66;1027352;28;20034;-70
2021/10/25 02:19:05;;;;;;;14.85;10.93;;;;;;;1.17;100.00;96377.88;1030882;28;20113;-70
2021/10/25 02:19:35;;;;;;;13.70;9.77;;;;;;;1.18;100.00;96380.28;1026730;28;20054;-70
2021/10/25 02:20:06;;;;;;;14.18;10.70;;;;;;;1.22;100.00;96387.66;1031090;28;20037;-69
2021/10/25 02:20:37;;;;;;;14.85;10.60;;;;;;;1.21;100.00;96381.69;1026933;28;20054;-70
2021/10/25 02:21:07;;;;;;;12.35;9.48;;;;;;;1.18;100.00;96380.28;1035036;28;20029;-71